Time;durP1;ratioP1;P1;durP2;ratioP2;P2;SDS_P1;SDS_P2;PMS_P1;PMS_P2;Temp;Humidity;BMP_temperature;BMP_pressure;BME280_temperature;BME280_humidity;BME280_pressure;Samples;Min_cycle;Max_cycle;Signal;HPM_P1;HPM_P2
2022/08/05 00:01:41;;;;;;;3.38;3.13;;;23.90;73.00;;;;;;5089595;28;20029;-80
2022/08/05 00:04:07;;;;;;;3.40;3.10;;;23.90;73.10;;;;;;5075326;28;20127;-80
2022/08/05 00:06:33;;;;;;;3.53;3.20;;;23.90;73.30;;;;;;5077178;28;20036;-81
2022/08/05 00:09:03;;;;;;;3.70;3.40;;;23.90;73.40;;;;;;5085553;28;20029;-81
2022/08/05 00:11:28;;;;;;;3.40;3.13;;;23.90;73.40;;;;;;5082521;28;20461;-82
2022/08/05 00:13:54;;;;;;;3.67;3.38;;;23.80;73.60;;;;;;5084166;28;20028;-81
2022/08/05 00:16:20;;;;;;;3.45;3.15;;;23.80;73.60;;;;;;5085110;28;20033;-80
2022/08/05 00:18:48;;;;;;;3.53;3.08;;;23.80;73.80;;;;;;5089088;28;20447;-82
2022/08/05 00:21:16;;;;;;;2.85;2.65;;;23.70;73.90;;;;;;5088323;28;20035;-81
2022/08/05 00:23:44;;;;;;;3.55;3.25;;;23.70;74.10;;;;;;5068621;28;20036;-81
2022/08/05 00:26:10;;;;;;;3.35;3.15;;;23.70;74.10;;;;;;5088103;28;20044;-82
2022/08/05 00:28:36;;;;;;;3.38;3.08;;;23.60;74.10;;;;;;5092537;28;20084;-82
2022/08/05 00:31:02;;;;;;;3.15;2.88;;;23.60;74.20;;;;;;5089031;28;20032;-83
2022/08/05 00:33:28;;;;;;;3.67;2.95;;;23.60;74.40;;;;;;5085283;28;20516;-82
2022/08/05 00:35:54;;;;;;;3.03;2.83;;;23.60;74.70;;;;;;5085645;28;20032;-82
2022/08/05 00:38:20;;;;;;;3.20;3.00;;;23.60;74.90;;;;;;5085692;28;20029;-81
2022/08/05 00:40:51;;;;;;;3.53;3.22;;;23.50;75.00;;;;;;5092980;28;20016;-79
2022/08/05 00:43:17;;;;;;;2.90;2.70;;;23.50;75.20;;;;;;5093509;28;20039;-80
2022/08/05 00:45:43;;;;;;;3.17;2.88;;;23.40;75.20;;;;;;5097676;28;20251;-82
2022/08/05 00:48:21;;;;;;;3.38;3.15;;;23.40;75.30;;;;;;5076413;28;20028;-82
2022/08/05 00:50:50;;;;;;;2.53;2.33;;;23.40;75.50;;;;;;5086573;28;20043;-82
2022/08/05 00:53:22;;;;;;;2.20;2.10;;;23.40;75.60;;;;;;5068166;28;20028;-81
2022/08/05 00:55:49;;;;;;;3.92;2.80;;;23.40;75.90;;;;;;5084927;28;20024;-80
2022/08/05 00:58:15;;;;;;;2.92;2.70;;;23.30;76.20;;;;;;5068346;28;20024;-81
2022/08/05 01:00:42;;;;;;;3.20;2.90;;;23.30;76.50;;;;;;5084924;28;20016;-81
2022/08/05 01:03:09;;;;;;;3.85;3.38;;;23.30;76.80;;;;;;5085666;28;20024;-82
2022/08/05 01:05:34;;;;;;;3.28;2.97;;;23.20;76.90;;;;;;5084625;28;20119;-82
2022/08/05 01:08:00;;;;;;;2.97;2.78;;;23.20;77.30;;;;;;5066306;28;20020;-82
2022/08/05 01:10:48;;;;;;;2.70;2.60;;;23.20;77.50;;;;;;5085397;28;20641;-81
2022/08/05 01:13:38;;;;;;;3.10;2.75;;;23.20;77.70;;;;;;5068079;28;20119;-81
2022/08/05 01:16:11;;;;;;;2.85;2.65;;;23.10;77.60;;;;;;5065505;28;20032;-81
2022/08/05 01:18:42;;;;;;;3.20;2.85;;;23.10;77.80;;;;;;5083176;28;20052;-81
2022/08/05 01:21:46;;;;;;;3.28;2.67;;;23.10;77.90;;;;;;5084685;28;20021;-81
2022/08/05 01:24:31;;;;;;;3.10;2.88;;;23.10;78.20;;;;;;5082528;28;20013;-81
2022/08/05 01:27:16;;;;;;;4.10;3.30;;;23.10;78.30;;;;;;5072896;28;20051;-81
2022/08/05 01:29:47;;;;;;;3.58;3.08;;;23.00;78.40;;;;;;5085388;28;20070;-82
2022/08/05 01:32:19;;;;;;;4.25;3.85;;;23.00;78.40;;;;;;5084476;28;20016;-81
2022/08/05 01:34:47;;;;;;;;;;;23.00;78.30;;;;;;5084421;28;20020;-82
2022/08/05 01:37:35;;;;;;;2.90;2.70;;;23.00;78.30;;;;;;5083926;28;19908;-81
2022/08/05 01:40:04;;;;;;;4.28;3.72;;;23.10;78.30;;;;;;5082958;28;20012;-80
2022/08/05 01:42:31;;;;;;;3.28;3.08;;;23.00;78.30;;;;;;5064028;28;20020;-81
2022/08/05 01:44:59;;;;;;;3.95;3.58;;;23.00;78.40;;;;;;5083072;28;20051;-82
2022/08/05 01:47:27;;;;;;;3.83;3.53;;;23.10;78.50;;;;;;5082916;28;20039;-82
2022/08/05 01:49:54;;;;;;;3.20;3.00;;;23.10;78.50;;;;;;5085800;28;20024;-82
2022/08/05 01:52:21;;;;;;;3.58;3.30;;;23.00;78.70;;;;;;5085013;28;20485;-80
2022/08/05 01:54:54;;;;;;;3.50;3.20;;;23.10;78.60;;;;;;5083565;28;20040;-79
2022/08/05 01:57:31;;;;;;;4.05;3.63;;;23.00;78.50;;;;;;5065025;28;20160;-81
2022/08/05 02:00:00;;;;;;;3.92;3.63;;;23.00;78.40;;;;;;5082201;28;20017;-82
2022/08/05 02:02:29;;;;;;;3.92;3.38;;;23.00;78.60;;;;;;5083667;28;20024;-81
2022/08/05 02:05:03;;;;;;;4.00;3.10;;;22.90;78.60;;;;;;5082939;28;20057;-80
2022/08/05 02:07:31;;;;;;;3.58;3.28;;;22.90;78.70;;;;;;5082573;28;20123;-80
2022/08/05 02:09:58;;;;;;;3.63;3.33;;;22.90;79.00;;;;;;5092655;28;20039;-80
2022/08/05 02:12:35;;;;;;;4.28;3.60;;;22.80;79.20;;;;;;5087857;28;20027;-81
2022/08/05 02:15:11;;;;;;;3.53;3.22;;;22.80;79.30;;;;;;5082487;28;20060;-81
2022/08/05 02:18:28;;;;;;;3.78;3.47;;;22.80;79.50;;;;;;5081963;28;20078;-81
2022/08/05 02:21:09;;;;;;;4.18;3.78;;;22.80;79.50;;;;;;5049534;28;20107;-82
2022/08/05 02:23:38;;;;;;;5.38;3.53;;;22.80;79.40;;;;;;5088833;28;20024;-80
2022/08/05 02:26:08;;;;;;;3.60;3.30;;;22.80;79.60;;;;;;5087122;28;20039;-82
2022/08/05 02:28:38;;;;;;;3.67;3.03;;;22.70;79.70;;;;;;5081526;28;20051;-82
2022/08/05 02:31:18;;;;;;;3.30;3.10;;;22.70;79.70;;;;;;5064209;28;20081;-82
2022/08/05 02:33:50;;;;;;;3.08;2.88;;;22.70;79.90;;;;;;5082358;28;20393;-82
2022/08/05 02:36:19;;;;;;;3.45;3.10;;;22.70;80.10;;;;;;5081424;28;20024;-81
2022/08/05 02:38:46;;;;;;;3.38;3.08;;;22.60;80.20;;;;;;5080387;28;20032;-81
2022/08/05 02:41:14;;;;;;;3.85;3.55;;;22.60;80.30;;;;;;5081364;28;20051;-81
2022/08/05 02:43:42;;;;;;;3.22;2.92;;;22.60;80.40;;;;;;5082108;28;20021;-82
2022/08/05 02:46:08;;;;;;;3.00;2.80;;;22.60;80.50;;;;;;5081215;28;20024;-81
2022/08/05 02:48:36;;;;;;;3.20;3.00;;;22.60;80.50;;;;;;5081406;28;20028;-81
2022/08/05 02:51:02;;;;;;;4.32;3.20;;;22.60;80.60;;;;;;5080503;28;20088;-81
2022/08/05 02:53:30;;;;;;;3.75;2.75;;;22.60;80.60;;;;;;5087563;28;20070;-81
2022/08/05 02:55:56;;;;;;;3.45;3.22;;;22.60;80.50;;;;;;5088354;28;20028;-81
2022/08/05 02:58:23;;;;;;;3.42;3.13;;;22.60;80.50;;;;;;5085863;28;20051;-81
2022/08/05 03:00:51;;;;;;;3.55;2.75;;;22.60;80.60;;;;;;5069988;28;20032;-81
2022/08/05 03:03:19;;;;;;;4.07;3.67;;;22.60;80.50;;;;;;5086183;28;20032;-81
2022/08/05 03:05:47;;;;;;;3.00;2.80;;;22.60;80.70;;;;;;5067498;28;20082;-82
2022/08/05 03:08:14;;;;;;;3.30;3.10;;;22.60;80.80;;;;;;5087860;28;20025;-81
2022/08/05 03:10:43;;;;;;;3.00;2.80;;;22.50;80.90;;;;;;5083441;28;20104;-82
2022/08/05 03:13:16;;;;;;;3.13;2.92;;;22.40;81.00;;;;;;5082460;28;20080;-81
2022/08/05 03:15:46;;;;;;;3.03;2.83;;;22.40;81.10;;;;;;5085902;28;20020;-81
2022/08/05 03:18:12;;;;;;;3.00;2.80;;;22.40;81.30;;;;;;5081109;28;20021;-81
2022/08/05 03:20:39;;;;;;;3.47;3.17;;;22.40;81.60;;;;;;5083222;28;20020;-80
2022/08/05 03:23:06;;;;;;;3.75;3.45;;;22.30;81.70;;;;;;5088131;28;20020;-81
2022/08/05 03:25:34;;;;;;;3.10;2.90;;;22.30;81.80;;;;;;5094355;28;20020;-81
2022/08/05 03:28:04;;;;;;;2.90;2.70;;;22.30;81.90;;;;;;5097713;28;20059;-80
2022/08/05 03:30:34;;;;;;;3.13;2.90;;;22.30;81.90;;;;;;5080118;28;20019;-80
2022/08/05 03:33:01;;;;;;;3.30;3.10;;;22.30;81.90;;;;;;5096975;28;20026;-80
2022/08/05 03:35:27;;;;;;;3.10;2.90;;;22.30;81.90;;;;;;5096447;28;20146;-80
2022/08/05 03:37:56;;;;;;;3.33;2.95;;;22.30;81.90;;;;;;5095429;28;20040;-79
2022/08/05 03:40:22;;;;;;;3.50;3.20;;;22.30;82.00;;;;;;5095721;28;20058;-80
2022/08/05 03:42:48;;;;;;;3.50;3.28;;;22.30;82.10;;;;;;5096101;28;20046;-81
2022/08/05 03:45:14;;;;;;;3.13;2.90;;;22.30;82.00;;;;;;5078751;28;20048;-81
2022/08/05 03:47:40;;;;;;;3.35;3.15;;;22.30;82.20;;;;;;5078711;28;20040;-81
2022/08/05 03:50:06;;;;;;;4.72;3.15;;;22.30;82.40;;;;;;5096607;28;20012;-80
2022/08/05 03:52:36;;;;;;;3.65;3.35;;;22.30;82.50;;;;;;5093563;22;20033;-78
2022/08/05 03:55:09;;;;;;;3.53;3.00;;;22.30;82.70;;;;;;5068394;28;20078;-78
2022/08/05 03:57:38;;;;;;;4.72;3.28;;;22.20;83.20;;;;;;5061371;28;20096;-79
2022/08/05 04:00:10;;;;;;;4.80;3.30;;;22.20;83.50;;;;;;5061183;28;20028;-79
2022/08/05 04:02:37;;;;;;;3.33;3.03;;;22.20;83.70;;;;;;5061995;28;20032;-87
2022/08/05 04:05:05;;;;;;;3.50;3.22;;;22.20;83.80;;;;;;5045252;28;20021;-84
2022/08/05 04:07:33;;;;;;;3.30;3.03;;;22.20;83.70;;;;;;5062426;28;20026;-84
2022/08/05 04:09:59;;;;;;;3.47;3.05;;;22.20;83.50;;;;;;5062610;28;20030;-83
2022/08/05 04:12:25;;;;;;;3.05;2.85;;;22.30;83.40;;;;;;5060024;28;20029;-89
2022/08/05 04:14:51;;;;;;;3.90;2.90;;;22.30;83.20;;;;;;5044889;28;20096;-86
2022/08/05 04:17:17;;;;;;;3.10;2.90;;;22.30;83.10;;;;;;5045012;28;20121;-86
2022/08/05 04:19:47;;;;;;;3.40;3.15;;;22.30;82.90;;;;;;5062459;28;20044;-85
2022/08/05 04:22:13;;;;;;;3.45;3.20;;;22.30;82.50;;;;;;5044829;28;20013;-84
2022/08/05 04:24:44;;;;;;;3.08;2.88;;;22.40;82.60;;;;;;5044363;28;20014;-85
2022/08/05 04:27:10;;;;;;;3.33;3.10;;;22.40;82.30;;;;;;5044726;28;20060;-88
2022/08/05 04:29:36;;;;;;;3.20;3.00;;;22.50;82.10;;;;;;5044837;28;20029;-85
2022/08/05 04:32:01;;;;;;;4.15;3.38;;;22.50;81.90;;;;;;5043803;28;20084;-87
2022/08/05 04:34:27;;;;;;;3.10;2.90;;;22.50;81.80;;;;;;5061453;28;20073;-89
2022/08/05 04:36:53;;;;;;;4.28;3.65;;;22.50;81.80;;;;;;5044028;28;20017;-90
2022/08/05 04:39:19;;;;;;;6.72;3.70;;;22.60;81.80;;;;;;5039083;28;20044;-79
2022/08/05 04:41:46;;;;;;;5.75;3.70;;;22.70;81.70;;;;;;5040663;28;20021;-79
2022/08/05 04:44:12;;;;;;;3.55;3.25;;;22.70;81.40;;;;;;5022657;28;20597;-79
2022/08/05 04:46:38;;;;;;;3.80;3.50;;;22.80;80.50;;;;;;5040011;28;20037;-79
2022/08/05 04:49:05;;;;;;;3.88;3.47;;;23.00;80.10;;;;;;5038596;28;20097;-79
2022/08/05 04:51:31;;;;;;;3.47;3.17;;;23.10;79.50;;;;;;5037991;28;20086;-79
2022/08/05 04:53:57;;;;;;;3.47;3.17;;;23.20;78.90;;;;;;5020551;28;20144;-79
2022/08/05 04:56:23;;;;;;;3.10;2.88;;;23.30;78.60;;;;;;5021279;28;20032;-79
2022/08/05 04:58:49;;;;;;;2.92;2.72;;;23.30;78.10;;;;;;5049418;28;20033;-79
2022/08/05 05:01:15;;;;;;;2.83;2.50;;;23.40;77.70;;;;;;5031646;28;20393;-80
2022/08/05 05:03:41;;;;;;;2.85;2.65;;;23.50;77.30;;;;;;5042841;28;20075;-80
2022/08/05 05:06:10;;;;;;;2.88;2.67;;;23.60;76.70;;;;;;5044685;28;20021;-80
2022/08/05 05:08:36;;;;;;;2.85;2.65;;;23.70;76.20;;;;;;5027696;28;20037;-79
2022/08/05 05:11:03;;;;;;;3.05;2.78;;;23.80;75.50;;;;;;5044801;28;20033;-79
2022/08/05 05:13:28;;;;;;;3.03;2.83;;;23.90;74.90;;;;;;5025204;28;20053;-78
2022/08/05 05:15:54;;;;;;;3.20;3.00;;;24.00;74.30;;;;;;5042536;28;20513;-79
2022/08/05 05:18:20;;;;;;;3.00;2.70;;;24.10;73.60;;;;;;5044257;28;20021;-80
2022/08/05 05:20:47;;;;;;;2.47;2.28;;;24.40;72.70;;;;;;5042962;28;20029;-80
2022/08/05 05:23:13;;;;;;;3.40;3.10;;;24.70;71.60;;;;;;5022412;28;20427;-80
2022/08/05 05:25:43;;;;;;;4.60;2.70;;;24.90;70.70;;;;;;5022698;28;20029;-80
2022/08/05 05:28:10;;;;;;;4.65;3.08;;;24.90;69.90;;;;;;5021887;28;20335;-81
2022/08/05 05:30:36;;;;;;;3.30;3.10;;;24.90;69.40;;;;;;5021696;28;20482;-80
2022/08/05 05:33:04;;;;;;;2.83;2.63;;;25.00;69.30;;;;;;5021581;28;20393;-82
2022/08/05 05:35:31;;;;;;;2.72;2.53;;;25.00;69.20;;;;;;5039532;28;20436;-81
2022/08/05 05:37:59;;;;;;;2.78;2.58;;;25.00;68.70;;;;;;5040969;28;20055;-80
2022/08/05 05:40:25;;;;;;;2.85;2.53;;;25.20;68.20;;;;;;5039823;28;20036;-82
2022/08/05 05:42:52;;;;;;;2.80;2.60;;;25.30;67.50;;;;;;5021268;28;20025;-80
2022/08/05 05:45:18;;;;;;;6.70;2.88;;;25.40;67.30;;;;;;5039056;28;20115;-82
2022/08/05 05:47:44;;;;;;;4.15;2.83;;;25.60;66.80;;;;;;5039775;28;20473;-80
2022/08/05 05:50:13;;;;;;;2.80;2.60;;;25.70;66.00;;;;;;5042097;28;20362;-82
2022/08/05 05:52:39;;;;;;;6.22;3.20;;;;;;;;;;5030823;28;20048;-81
2022/08/05 05:55:35;;;;;;;4.28;2.53;;;26.10;64.20;;;;;;5042620;28;20029;-86
2022/08/05 05:58:13;;;;;;;4.53;2.47;;;26.40;63.80;;;;;;5017170;28;20435;-86
2022/08/05 06:01:33;;;;;;;2.85;2.65;;;26.80;63.30;;;;;;5042395;28;20026;-88
2022/08/05 06:04:59;;;;;;;2.83;2.50;;;27.10;62.00;;;;;;5009308;28;20015;-89
2022/08/05 06:08:06;;;;;;;3.75;2.75;;;27.60;60.80;;;;;;4978630;28;20039;-89
2022/08/05 06:10:57;;;;;;;5.95;2.88;;;29.10;58.10;;;;;;4991786;28;20042;-86
2022/08/05 06:20:44;;;;;;;3.92;3.13;;;30.60;53.00;;;;;;5007836;28;20041;-86
2022/08/05 06:23:35;;;;;;;2.75;2.55;;;29.80;55.20;;;;;;5015473;28;20018;-86
2022/08/05 06:26:23;;;;;;;2.95;2.67;;;30.90;54.10;;;;;;4998420;28;20039;-87
2022/08/05 06:28:51;;;;;;;3.28;2.90;;;33.80;50.80;;;;;;5000003;28;20014;-89
2022/08/05 06:31:21;;;;;;;4.28;2.95;;;;;;;;;;5003207;28;20023;-87
2022/08/05 06:54:14;;;;;;;2.55;2.38;;;37.10;42.50;;;;;;5030943;28;20035;-85
2022/08/05 06:57:17;;;;;;;7.43;3.63;;;37.30;42.70;;;;;;5034272;28;20069;-86
2022/08/05 06:59:43;;;;;;;7.88;3.70;;;37.20;42.40;;;;;;5037222;28;20110;-86
2022/08/05 07:02:11;;;;;;;3.42;2.60;;;36.60;42.60;;;;;;5068857;28;20033;-86
2022/08/05 07:04:37;;;;;;;3.63;2.63;;;34.80;44.20;;;;;;5040860;28;20037;-86
2022/08/05 07:07:41;;;;;;;2.50;2.30;;;33.30;46.50;;;;;;5037877;28;20060;-85
2022/08/05 07:18:18;;;;;;;2.85;2.63;;;30.60;51.30;;;;;;4890016;29;20549;-86
2022/08/05 07:21:38;;;;;;;2.90;2.67;;;30.30;52.10;;;;;;4852875;29;20041;-86
2022/08/05 07:25:19;;;;;;;3.20;2.90;;;30.00;52.70;;;;;;4825277;29;20122;-86
2022/08/05 07:28:54;;;;;;;2.65;2.45;;;29.60;53.50;;;;;;4824356;29;20038;-87
2022/08/05 07:35:57;;;;;;;3.85;3.17;;;28.80;55.50;;;;;;4822090;29;20070;-86
2022/08/05 07:38:54;;;;;;;3.13;2.80;;;28.50;55.80;;;;;;4838631;29;20443;-85
2022/08/05 07:41:52;;;;;;;2.95;2.55;;;28.30;56.20;;;;;;4796359;29;20596;-86
2022/08/05 07:44:52;;;;;;;3.58;2.65;;;28.30;56.60;;;;;;4829500;29;20045;-86
2022/08/05 07:48:00;;;;;;;4.47;2.60;;;28.20;57.10;;;;;;4873179;29;20079;-86
2022/08/05 08:00:35;;;;;;;4.90;3.30;;;28.70;57.00;;;;;;4936603;29;20043;-88
2022/08/05 08:03:13;;;;;;;7.75;3.10;;;28.50;57.00;;;;;;4945175;28;20419;-87
2022/08/05 08:06:03;;;;;;;5.38;3.60;;;28.30;57.10;;;;;;4966781;28;20078;-86
2022/08/05 08:11:56;;;;;;;8.45;3.08;;;28.10;57.00;;;;;;5013510;28;20065;-86
2022/08/05 08:14:23;;;;;;;4.55;3.00;;;28.10;57.20;;;;;;4962339;28;20027;-86
2022/08/05 08:16:50;;;;;;;6.85;3.47;;;28.00;57.10;;;;;;4990345;28;20057;-86
2022/08/05 08:19:25;;;;;;;5.75;3.70;;;28.00;57.30;;;;;;4990020;28;20463;-86
2022/08/05 08:22:27;;;;;;;4.43;3.03;;;28.00;56.30;;;;;;5016432;28;20417;-87
2022/08/05 08:24:53;;;;;;;6.43;3.38;;;28.00;56.00;;;;;;5017633;28;20500;-86
2022/08/05 08:27:19;;;;;;;5.20;3.70;;;28.10;56.00;;;;;;5019792;28;20071;-87
2022/08/05 08:29:49;;;;;;;4.80;3.78;;;28.10;55.60;;;;;;5018621;28;20458;-86
2022/08/05 08:32:15;;;;;;;4.30;3.45;;;28.20;56.30;;;;;;5019743;28;20037;-84
2022/08/05 08:34:42;;;;;;;9.38;3.63;;;28.30;55.20;;;;;;5044990;28;20022;-87
2022/08/05 08:37:08;;;;;;;3.60;3.13;;;28.30;55.20;;;;;;5030248;28;20030;-86
2022/08/05 08:39:34;;;;;;;7.47;3.83;;;28.30;55.20;;;;;;5023393;28;20496;-87
2022/08/05 08:42:01;;;;;;;4.53;3.38;;;28.30;55.40;;;;;;5024594;28;20029;-87
2022/08/05 08:44:34;;;;;;;5.93;3.97;;;28.30;55.70;;;;;;5030587;28;20084;-87
2022/08/05 08:47:07;;;;;;;5.90;3.70;;;28.30;55.50;;;;;;5028592;28;20044;-87
2022/08/05 08:49:36;;;;;;;3.55;3.25;;;28.30;55.50;;;;;;5021049;28;20035;-87
2022/08/05 08:52:11;;;;;;;6.85;3.25;;;28.40;55.90;;;;;;5041928;28;20040;-87
2022/08/05 08:54:38;;;;;;;5.20;4.00;;;28.40;55.80;;;;;;5023524;28;20032;-87
2022/08/05 08:57:11;;;;;;;8.30;3.70;;;28.40;55.60;;;;;;5019381;28;20101;-88
2022/08/05 08:59:40;;;;;;;9.07;4.35;;;28.50;55.80;;;;;;5020065;28;20513;-87
2022/08/05 09:02:13;;;;;;;13.50;4.18;;;28.50;55.30;;;;;;5021300;28;20036;-88
2022/08/05 09:04:43;;;;;;;7.13;3.60;;;28.50;55.30;;;;;;5021804;28;20084;-86
2022/08/05 09:07:13;;;;;;;6.82;4.10;;;28.50;55.60;;;;;;5031430;28;20105;-87
2022/08/05 09:09:39;;;;;;;5.53;3.88;;;28.60;55.30;;;;;;5058191;28;20079;-86
2022/08/05 09:12:16;;;;;;;7.18;4.18;;;28.50;55.20;;;;;;5041969;28;20037;-87
2022/08/05 09:14:42;;;;;;;17.20;4.18;;;28.70;55.40;;;;;;5022014;28;20029;-86
2022/08/05 09:17:11;;;;;;;9.40;3.20;;;28.90;54.70;;;;;;5020645;28;20374;-86
2022/08/05 09:19:38;;;;;;;10.75;3.83;;;29.00;54.50;;;;;;5020226;28;20067;-87
2022/08/05 09:22:04;;;;;;;7.70;3.75;;;29.20;54.20;;;;;;5019973;28;20025;-88
2022/08/05 09:24:29;;;;;;;4.60;3.65;;;29.10;54.30;;;;;;5020167;28;20051;-86
2022/08/05 09:26:57;;;;;;;9.80;3.85;;;29.20;54.50;;;;;;5042430;28;20030;-86
2022/08/05 09:29:57;;;;;;;7.80;3.75;;;29.20;54.20;;;;;;5021734;28;20067;-87
2022/08/05 09:32:37;;;;;;;8.10;3.45;;;29.30;54.00;;;;;;4988816;28;20498;-87
2022/08/05 09:35:29;;;;;;;8.45;3.70;;;29.50;53.50;;;;;;5039342;28;20410;-86
2022/08/05 09:37:56;;;;;;;5.75;3.25;;;29.60;52.60;;;;;;5017797;28;20187;-86
2022/08/05 09:40:35;;;;;;;8.60;3.50;;;29.70;52.80;;;;;;5020743;28;20017;-86
2022/08/05 09:43:02;;;;;;;7.88;2.90;;;29.80;52.40;;;;;;5021162;28;20018;-87
2022/08/05 09:45:40;;;;;;;4.32;3.42;;;30.00;53.00;;;;;;5020716;28;20040;-87
2022/08/05 09:48:29;;;;;;;9.68;3.35;;;30.50;51.70;;;;;;5018344;28;20117;-87
2022/08/05 09:51:04;;;;;;;6.80;3.80;;;30.80;51.10;;;;;;5019010;28;20032;-88
2022/08/05 09:53:49;;;;;;;5.30;3.10;;;31.00;50.40;;;;;;5027063;28;20022;-88
2022/08/05 09:56:28;;;;;;;4.65;3.15;;;30.90;50.30;;;;;;5018922;28;20442;-87
2022/08/05 09:59:02;;;;;;;6.70;3.38;;;30.90;50.00;;;;;;5019368;28;20079;-87
2022/08/05 10:01:32;;;;;;;10.23;3.45;;;31.00;49.30;;;;;;5039457;28;20056;-87
2022/08/05 10:04:02;;;;;;;5.40;3.63;;;31.10;50.10;;;;;;5027771;28;20033;-87
2022/08/05 10:06:28;;;;;;;10.27;3.53;;;31.30;50.00;;;;;;5020086;28;20449;-87
2022/08/05 10:08:54;;;;;;;4.57;2.70;;;31.30;49.80;;;;;;5021356;28;20052;-87
2022/08/05 10:11:24;;;;;;;10.00;3.72;;;31.40;49.70;;;;;;5028434;28;20017;-87
2022/08/05 10:13:50;;;;;;;6.47;3.35;;;31.50;49.40;;;;;;5039657;28;20111;-87
2022/08/05 10:16:34;;;;;;;5.07;3.10;;;31.40;49.50;;;;;;5039837;28;20044;-88
2022/08/05 10:19:01;;;;;;;5.20;2.95;;;31.10;50.10;;;;;;5039365;28;20033;-89
2022/08/05 10:21:30;;;;;;;6.47;3.08;;;30.90;50.60;;;;;;5039339;28;20033;-88
2022/08/05 10:23:57;;;;;;;5.65;2.97;;;30.80;51.10;;;;;;5050990;28;20037;-88
2022/08/05 10:26:30;;;;;;;9.55;2.85;;;31.00;50.50;;;;;;5039035;28;20020;-87
2022/08/05 10:28:59;;;;;;;5.55;3.20;;;31.20;49.90;;;;;;5038932;28;20085;-88
2022/08/05 10:31:26;;;;;;;9.15;3.30;;;31.40;49.70;;;;;;5030063;28;20113;-86
2022/08/05 10:33:51;;;;;;;4.07;2.78;;;31.50;48.80;;;;;;5011519;28;20021;-86
2022/08/05 10:36:17;;;;;;;7.93;2.75;;;31.70;48.70;;;;;;5037526;28;20551;-87
2022/08/05 10:38:46;;;;;;;6.55;3.13;;;31.80;47.80;;;;;;5036364;28;20039;-87
2022/08/05 10:41:33;;;;;;;7.65;2.95;;;32.00;47.70;;;;;;5014536;28;20048;-87
2022/08/05 10:44:06;;;;;;;5.07;2.70;;;32.00;47.30;;;;;;4998826;28;20037;-88
2022/08/05 10:46:48;;;;;;;4.85;2.55;;;31.90;47.00;;;;;;4999995;28;20053;-87
2022/08/05 10:49:14;;;;;;;9.20;2.53;;;31.80;47.80;;;;;;5000476;28;20033;-87
2022/08/05 10:51:48;;;;;;;6.95;2.67;;;31.90;47.80;;;;;;5009608;28;20550;-87
2022/08/05 10:54:15;;;;;;;7.25;2.80;;;31.80;47.90;;;;;;5035256;28;20021;-87
2022/08/05 10:56:48;;;;;;;9.73;2.90;;;32.00;48.20;;;;;;5017195;28;20092;-87
2022/08/05 10:59:28;;;;;;;4.28;2.53;;;32.20;48.10;;;;;;5016195;28;20036;-86
2022/08/05 11:02:09;;;;;;;5.82;2.80;;;32.40;47.50;;;;;;5034454;28;20052;-87
2022/08/05 11:04:46;;;;;;;5.55;3.25;;;32.40;47.80;;;;;;5016981;28;20497;-86
2022/08/05 11:07:15;;;;;;;6.97;2.83;;;32.40;47.90;;;;;;5017654;28;20038;-87
2022/08/05 11:09:51;;;;;;;4.43;2.60;;;32.50;47.10;;;;;;5034957;28;20014;-86
2022/08/05 11:12:42;;;;;;;4.75;2.53;;;32.30;47.60;;;;;;5017016;28;20049;-87
2022/08/05 11:15:09;;;;;;;13.07;3.47;;;32.10;47.40;;;;;;5018713;28;20064;-87
2022/08/05 11:17:37;;;;;;;4.82;2.63;;;32.30;47.50;;;;;;5036867;28;20453;-87
2022/08/05 11:20:27;;;;;;;5.00;3.28;;;32.50;47.30;;;;;;5036701;28;20022;-87
2022/08/05 11:22:53;;;;;;;4.47;2.88;;;32.70;46.70;;;;;;5033552;28;20052;-86
2022/08/05 11:25:37;;;;;;;4.88;2.90;;;32.90;45.60;;;;;;5017915;28;20021;-86
2022/08/05 11:28:12;;;;;;;6.35;2.40;;;33.00;45.80;;;;;;5049153;28;20032;-86
2022/08/05 11:30:56;;;;;;;8.77;2.55;;;33.10;45.30;;;;;;5023201;28;20029;-87
2022/08/05 11:33:29;;;;;;;3.88;2.53;;;32.90;45.40;;;;;;5016620;28;20466;-86
2022/08/05 11:35:58;;;;;;;4.45;2.63;;;32.80;45.80;;;;;;5034840;28;20026;-87
2022/08/05 11:38:42;;;;;;;3.38;2.42;;;32.80;46.10;;;;;;5034606;28;20028;-87
2022/08/05 11:41:19;;;;;;;6.72;2.80;;;32.90;45.30;;;;;;5034016;28;20034;-87
2022/08/05 11:44:09;;;;;;;4.47;2.50;;;32.70;45.00;;;;;;5018483;28;20083;-86
2022/08/05 11:46:46;;;;;;;4.35;3.00;;;32.30;45.80;;;;;;5042169;28;20017;-87
2022/08/05 11:49:14;;;;;;;5.55;2.78;;;32.20;46.20;;;;;;5019350;28;20112;-86
2022/08/05 11:51:46;;;;;;;3.60;2.55;;;32.00;46.40;;;;;;5018645;28;20033;-86
2022/08/05 11:54:19;;;;;;;5.75;2.30;;;32.00;46.60;;;;;;5036788;28;20033;-86
2022/08/05 11:56:50;;;;;;;3.95;2.78;;;32.20;46.30;;;;;;5052481;28;20047;-86
2022/08/05 11:59:18;;;;;;;3.35;2.17;;;32.50;45.60;;;;;;5054565;28;20037;-87
2022/08/05 12:02:02;;;;;;;2.58;2.38;;;32.70;45.70;;;;;;5050771;28;20104;-86
2022/08/05 12:04:42;;;;;;;5.65;2.45;;;33.00;45.50;;;;;;5037720;28;20033;-87
2022/08/05 12:07:10;;;;;;;5.07;2.40;;;33.20;45.00;;;;;;5019968;28;20059;-87
2022/08/05 12:09:55;;;;;;;2.80;2.60;;;33.20;44.80;;;;;;5046042;28;20021;-87
2022/08/05 12:12:43;;;;;;;4.53;2.45;;;33.20;44.80;;;;;;5048476;28;20041;-86
2022/08/05 12:15:48;;;;;;;3.17;2.30;;;33.50;44.60;;;;;;5040106;28;20037;-86
2022/08/05 12:18:35;;;;;;;4.97;2.30;;;33.60;44.30;;;;;;5034902;28;20071;-87
2022/08/05 12:21:24;;;;;;;5.13;3.10;;;33.40;44.20;;;;;;5054763;28;20085;-85
2022/08/05 12:24:10;;;;;;;2.22;2.03;;;33.30;44.10;;;;;;5037492;28;20061;-88
2022/08/05 12:27:32;;;;;;;5.82;2.90;;;33.30;44.70;;;;;;5029619;28;20101;-87
2022/08/05 12:30:08;;;;;;;2.95;2.63;;;33.40;44.40;;;;;;5043055;28;20075;-88
2022/08/05 12:32:46;;;;;;;2.85;2.40;;;33.20;44.80;;;;;;5052384;28;20123;-86
2022/08/05 12:35:15;;;;;;;5.22;2.67;;;33.20;44.70;;;;;;5032363;28;20034;-86
2022/08/05 12:37:45;;;;;;;4.43;2.40;;;33.20;44.60;;;;;;5006511;28;20045;-87
2022/08/05 12:40:11;;;;;;;6.35;2.67;;;33.00;44.50;;;;;;5005745;28;20053;-85
2022/08/05 12:42:38;;;;;;;2.30;2.20;;;32.80;44.70;;;;;;5046549;28;20010;-86
2022/08/05 12:45:06;;;;;;;2.90;2.58;;;32.70;44.70;;;;;;5040264;28;20021;-86
2022/08/05 12:47:32;;;;;;;2.90;2.70;;;32.70;45.10;;;;;;5040601;28;20033;-87
2022/08/05 12:49:59;;;;;;;10.68;3.15;;;32.70;45.10;;;;;;5038984;28;20064;-86
2022/08/05 12:52:26;;;;;;;3.58;2.65;;;32.70;44.90;;;;;;5022377;28;20036;-85
2022/08/05 12:54:51;;;;;;;3.10;2.85;;;32.80;44.80;;;;;;5058694;28;20029;-85
2022/08/05 12:57:19;;;;;;;3.15;2.78;;;32.70;45.00;;;;;;5044190;28;20072;-86
2022/08/05 13:00:46;;;;;;;6.90;2.63;;;32.70;45.40;;;;;;5020367;28;20049;-86
2022/08/05 13:03:52;;;;;;;2.58;2.38;;;32.80;44.90;;;;;;4961148;28;20035;-88
2022/08/05 13:06:18;;;;;;;2.65;2.45;;;32.70;45.10;;;;;;4978184;28;20057;-86
2022/08/05 13:08:47;;;;;;;2.63;2.42;;;32.90;45.30;;;;;;4976891;28;20103;-85
2022/08/05 13:11:16;;;;;;;4.85;2.90;;;33.20;44.60;;;;;;5014090;28;20085;-85
2022/08/05 13:13:42;;;;;;;2.53;2.25;;;33.30;44.30;;;;;;5037800;28;20024;-86
2022/08/05 13:16:12;;;;;;;4.80;2.35;;;33.20;44.40;;;;;;5037854;28;20029;-86
2022/08/05 13:18:38;;;;;;;2.93;2.47;;;33.30;44.20;;;;;;5037646;28;20171;-86
2022/08/05 13:21:04;;;;;;;2.50;2.30;;;33.40;44.10;;;;;;5038410;28;20037;-86
2022/08/05 13:23:30;;;;;;;3.25;2.90;;;33.60;43.60;;;;;;5036412;28;20096;-85
2022/08/05 13:25:56;;;;;;;3.75;2.20;;;33.70;43.50;;;;;;5037406;28;20032;-85
2022/08/05 13:28:21;;;;;;;2.70;2.47;;;34.10;43.50;;;;;;5037478;28;20495;-86
2022/08/05 13:30:47;;;;;;;3.53;2.53;;;34.10;43.70;;;;;;5047562;28;20040;-86
2022/08/05 13:33:16;;;;;;;2.55;2.45;;;33.90;43.30;;;;;;5029762;28;20034;-86
2022/08/05 13:35:42;;;;;;;3.50;2.80;;;33.70;43.70;;;;;;5021554;28;20052;-86
2022/08/05 13:38:11;;;;;;;4.20;2.42;;;33.60;44.10;;;;;;5023896;28;20029;-89
2022/08/05 13:40:36;;;;;;;2.80;2.60;;;33.90;44.20;;;;;;5023344;28;20022;-87
2022/08/05 13:43:08;;;;;;;4.97;2.55;;;34.20;43.60;;;;;;5021537;28;20056;-88
2022/08/05 13:45:48;;;;;;;2.95;2.75;;;34.80;43.20;;;;;;5022053;28;20057;-88
2022/08/05 13:48:36;;;;;;;;;;;;;;;;;;;;;
2022/08/05 13:52:07;;;;;;;3.70;2.77;;;36.00;41.10;;;;;;5021889;28;20521;-89
2022/08/05 13:54:37;;;;;;;3.58;2.80;;;35.80;41.20;;;;;;5038084;28;20017;-90
2022/08/05 13:57:10;;;;;;;4.75;2.97;;;35.50;42.10;;;;;;5046764;28;20018;-88
2022/08/05 13:59:37;;;;;;;4.28;3.03;;;35.10;41.80;;;;;;5040454;28;20032;-87
2022/08/05 14:02:04;;;;;;;3.10;2.85;;;34.90;42.00;;;;;;5053346;28;20033;-86
2022/08/05 14:05:23;;;;;;;4.07;2.55;;;34.60;42.50;;;;;;5057239;28;20085;-93
2022/08/05 14:12:09;;;;;;;3.25;2.70;;;34.60;42.30;;;;;;4975144;28;20097;-91
2022/08/05 14:15:20;;;;;;;4.22;2.28;;;34.50;42.20;;;;;;4977664;28;20082;-92
2022/08/05 14:17:51;;;;;;;3.22;2.72;;;34.40;41.80;;;;;;4979025;28;20057;-90
2022/08/05 14:20:23;;;;;;;6.82;2.83;;;34.00;41.40;;;;;;4995613;28;20046;-89